Tindal Airport
YPTN : now visible

Airfield :











YOU CAN JOIN US ON...

 
LOGIN :

Register | Disclaimer

   EN    FR    IT 

 









Legend :    VFR   Marginal VFR   IFR   Intensive IFR   Very Intensive IFR
Visi :
Ceiling :
>= 8 km
>= 3000ft
5 to 8 km
1000 to 3000 ft
1500m to 5 km
500 to 1000 ft
800 to 1500m
200 to 500 ft
< 800m
< 200 ft
Symbols :   Thunderstorms  Fog  Heavy snow  Heavy precipitations  Wind > 20 kt






- Airport Elevation : 443 ft
- IATA code : KTR


YPTN - Tindal

CURRENT METAR :
  • 202300Z AUTO 12007KT 9999 // NCD 24/16 Q1015 RF00.0/000.0

EXPIRED METARs :
  • 202230Z AUTO 13005KT 9999 // NCD 23/16 Q1015 RF00.0/000.0
  • 202200Z AUTO 14004KT 9999 // NCD 21/16 Q1014 RF00.0/000.0
  • 202130Z AUTO 14005KT 9999 // NCD 20/16 Q1014 RF00.0/000.0
  • 202100Z AUTO 15004KT 9999 // NCD 20/15 Q1014 RF00.0/000.0
  • 202030Z AUTO 15001KT 9999 // NCD 21/15 Q1014 RF00.0/000.0

TAF TAF YPTN
Valid from the 20 at 18:00 until the 21 at 18:00 UTC


201716Z 2018/2118 12005KT CAVOK
FM202300 12012KT CAVOK
FM211000 14005KT CAVOK
PROB30 2018/2020 5000 FU NSC
YBBB FIR / Oceania



MET'MAP, your aeronautical weather chart ! - Copyright ORBIFLY December 2007 - Disclaimer

ORBIFLY MET'MAP TEAM :

Programming & Development : Alexandra Zaïnal
Original concept : Baudouin d'Aumeries
Technical & hardware support : Manuel Goepfert
Assistance : Marc-Olivier Méhu

Contact : metmap@orbifly.com




SOURCES & CREDITS :

   NOAA       Earth
Advisory